Time;durP1;ratioP1;P1;durP2;ratioP2;P2;SDS_P1;SDS_P2;PMS_P1;PMS_P2;Temp;Humidity;BMP_temperature;BMP_pressure;BME280_temperature;BME280_humidity;BME280_pressure;Samples;Min_cycle;Max_cycle;Signal;HPM_P1;HPM_P2
2022/01/12 00:01:56;;;;;;;10.00;4.68;;;3.80;99.90;;;;;;5102678;27;20428;-77
2022/01/12 00:04:22;;;;;;;12.95;5.70;;;4.10;99.90;;;;;;5108065;27;20039;-77
2022/01/12 00:06:47;;;;;;;11.38;5.22;;;4.00;99.90;;;;;;5109320;27;20040;-77
2022/01/12 00:09:14;;;;;;;11.90;6.35;;;3.70;99.90;;;;;;5091089;27;20042;-77
2022/01/12 00:11:39;;;;;;;18.65;4.75;;;3.60;99.90;;;;;;5093531;27;20052;-77
2022/01/12 00:14:05;;;;;;;11.02;4.93;;;3.60;99.90;;;;;;5111004;27;20048;-77
2022/01/12 00:16:32;;;;;;;16.35;6.68;;;4.10;99.90;;;;;;5090505;27;20713;-77
2022/01/12 00:18:58;;;;;;;11.13;5.53;;;4.10;99.90;;;;;;5107335;27;20052;-77
2022/01/12 00:21:24;;;;;;;13.65;6.53;;;3.80;99.90;;;;;;5094924;27;20547;-77
2022/01/12 00:23:50;;;;;;;11.18;4.15;;;3.90;99.90;;;;;;5111237;27;20047;-77
2022/01/12 00:34:26;;;;;;;9.02;4.10;;;3.50;99.90;;;;;;5108306;27;20429;-77
2022/01/12 00:36:52;;;;;;;9.85;3.85;;;3.60;99.90;;;;;;5097850;27;20040;-77
2022/01/12 00:39:18;;;;;;;12.30;3.80;;;3.80;99.90;;;;;;5091761;27;20039;-77
2022/01/12 00:41:44;;;;;;;8.65;4.32;;;3.50;99.90;;;;;;5091433;27;20040;-77
2022/01/12 00:44:11;;;;;;;8.18;3.85;;;3.30;99.90;;;;;;5109275;27;20068;-77
2022/01/12 00:46:39;;;;;;;7.78;3.97;;;3.20;99.90;;;;;;5110140;27;20081;-77
2022/01/12 00:49:06;;;;;;;13.02;4.80;;;4.10;99.90;;;;;;5110630;27;20040;-77
2022/01/12 00:51:33;;;;;;;9.85;4.88;;;3.30;99.90;;;;;;5105922;27;20035;-76
2022/01/12 00:54:00;;;;;;;10.15;4.45;;;3.30;99.90;;;;;;5106550;27;20390;-78
2022/01/12 00:56:26;;;;;;;13.63;5.05;;;3.40;99.90;;;;;;5109795;27;20032;-77
2022/01/12 00:58:53;;;;;;;14.52;4.85;;;3.40;99.90;;;;;;5111423;27;21880;-77
2022/01/12 01:01:20;;;;;;;12.68;4.68;;;3.20;99.90;;;;;;5089584;27;20048;-78
2022/01/12 01:03:47;;;;;;;9.43;5.15;;;3.00;99.90;;;;;;5094583;27;20031;-76
2022/01/12 01:06:13;;;;;;;10.13;4.57;;;3.00;99.90;;;;;;5111066;27;20040;-77
2022/01/12 01:08:39;;;;;;;13.80;4.55;;;3.30;99.90;;;;;;5087848;27;20040;-77
2022/01/12 01:11:06;;;;;;;11.15;3.97;;;3.90;99.90;;;;;;5091334;27;21810;-77
2022/01/12 01:13:43;;;;;;;11.75;4.50;;;3.30;99.90;;;;;;5106464;27;20040;-77
2022/01/12 01:16:22;;;;;;;10.93;4.28;;;2.90;99.90;;;;;;5105496;27;20043;-77
2022/01/12 01:27:00;;;;;;;12.57;5.38;;;3.40;99.90;;;;;;5111072;27;20067;-77
2022/01/12 01:29:27;;;;;;;7.90;3.30;;;3.00;99.90;;;;;;5087450;27;20119;-77
2022/01/12 01:31:52;;;;;;;11.80;4.75;;;3.00;99.90;;;;;;5109727;27;20115;-77
2022/01/12 01:34:19;;;;;;;10.00;3.70;;;3.10;99.90;;;;;;5108314;27;20090;-77
2022/01/12 01:36:48;;;;;;;11.05;4.75;;;2.80;99.90;;;;;;5109889;27;20102;-77
2022/01/12 01:39:18;;;;;;;7.88;3.17;;;4.10;99.90;;;;;;5091775;27;20036;-77
2022/01/12 01:41:49;;;;;;;12.80;3.90;;;3.10;99.90;;;;;;5086233;27;22347;-77
2022/01/12 01:54:59;;;;;;;10.95;4.40;;;3.10;99.90;;;;;;5112705;27;20079;-74
2022/01/12 01:57:26;;;;;;;7.88;2.92;;;4.50;99.90;;;;;;5096665;27;20151;-74
2022/01/12 01:59:52;;;;;;;9.70;4.05;;;3.40;99.90;;;;;;5091654;27;20075;-73
2022/01/12 02:02:18;;;;;;;12.80;4.88;;;3.30;99.90;;;;;;5093646;27;20073;-75
2022/01/12 02:04:45;;;;;;;11.23;3.95;;;2.90;99.90;;;;;;5091687;27;20039;-74
2022/01/12 02:07:11;;;;;;;11.00;3.78;;;2.70;99.90;;;;;;5098763;27;20090;-74
2022/01/12 02:09:37;;;;;;;8.50;3.25;;;3.20;99.90;;;;;;5100599;27;20114;-74
2022/01/12 02:12:03;;;;;;;12.60;4.80;;;3.10;99.90;;;;;;5099201;27;20237;-74
2022/01/12 02:14:29;;;;;;;8.55;4.00;;;2.80;99.90;;;;;;5115512;27;20043;-74
2022/01/12 02:17:02;;;;;;;7.80;3.65;;;4.30;99.90;;;;;;5110668;27;20032;-75
2022/01/12 02:19:48;;;;;;;8.15;3.40;;;2.90;99.90;;;;;;5098624;27;20048;-74
2022/01/12 02:36:14;;;;;;;8.07;3.22;;;2.80;99.90;;;;;;5110488;27;20051;-74
2022/01/12 02:41:25;;;;;;;6.38;2.78;;;2.90;99.90;;;;;;5115556;27;20896;-74
2022/01/12 02:54:43;;;;;;;5.75;2.72;;;3.50;99.90;;;;;;5114683;27;20048;-75
2022/01/12 02:57:09;;;;;;;10.25;3.65;;;4.00;99.90;;;;;;5095095;27;20062;-74
2022/01/12 02:59:45;;;;;;;11.75;4.13;;;3.70;99.90;;;;;;5099039;27;20841;-74
2022/01/12 03:02:27;;;;;;;4.97;2.95;;;3.00;99.90;;;;;;5111623;27;20046;-74
2022/01/12 03:05:14;;;;;;;5.90;3.00;;;3.90;99.90;;;;;;5102021;27;20664;-74
2022/01/12 03:07:40;;;;;;;14.18;6.30;;;3.40;99.90;;;;;;5117058;27;20059;-74
2022/01/12 03:10:14;;;;;;;14.93;4.78;;;3.30;99.90;;;;;;5098807;27;20874;-74
2022/01/12 03:12:41;;;;;;;9.20;4.30;;;3.10;99.90;;;;;;5098372;27;20050;-75
2022/01/12 03:15:07;;;;;;;12.75;4.60;;;3.30;99.90;;;;;;5093488;27;20040;-74
2022/01/12 03:17:34;;;;;;;14.32;4.82;;;2.90;99.90;;;;;;5117985;27;20543;-74
2022/01/12 03:20:01;;;;;;;13.50;5.45;;;3.00;99.90;;;;;;5103016;27;20544;-73
2022/01/12 03:22:26;;;;;;;10.77;3.65;;;3.30;99.90;;;;;;5097681;27;20521;-74
2022/01/12 03:24:53;;;;;;;8.45;4.40;;;3.20;99.90;;;;;;5100408;27;20047;-74
2022/01/12 03:27:21;;;;;;;13.50;5.45;;;3.40;99.90;;;;;;5093176;27;20043;-74
2022/01/12 03:29:50;;;;;;;12.23;5.90;;;3.50;99.90;;;;;;5094197;27;20515;-74
2022/01/12 03:32:19;;;;;;;11.32;4.28;;;3.20;99.90;;;;;;5095100;27;20046;-74
2022/01/12 03:34:54;;;;;;;12.73;4.22;;;3.20;99.90;;;;;;5115034;27;20044;-74
2022/01/12 03:40:05;;;;;;;6.50;4.35;;;3.70;99.90;;;;;;5112239;27;20054;-74
2022/01/12 03:42:31;;;;;;;11.98;4.30;;;3.00;99.90;;;;;;5095615;27;20040;-74
2022/01/12 03:44:57;;;;;;;12.95;4.45;;;3.00;99.90;;;;;;5096086;27;20039;-74
2022/01/12 03:47:23;;;;;;;15.32;7.25;;;3.10;99.90;;;;;;5096887;27;20420;-74
2022/01/12 03:49:49;;;;;;;11.50;6.43;;;3.20;99.90;;;;;;5114591;27;20093;-74
2022/01/12 03:52:15;;;;;;;9.38;3.40;;;2.60;99.90;;;;;;5114656;27;20382;-74
2022/01/12 03:54:41;;;;;;;7.85;3.28;;;4.10;99.90;;;;;;5093390;27;20415;-74
2022/01/12 03:57:07;;;;;;;12.48;6.63;;;2.90;99.90;;;;;;5095429;27;20051;-74
2022/01/12 03:59:32;;;;;;;9.43;4.88;;;2.90;99.90;;;;;;5095320;27;20400;-74
2022/01/12 04:01:58;;;;;;;12.88;5.38;;;3.00;99.90;;;;;;5097799;27;20047;-74
2022/01/12 04:04:32;;;;;;;8.73;3.70;;;3.30;99.90;;;;;;5097459;27;20508;-74
2022/01/12 04:09:43;;;;;;;11.50;5.60;;;3.00;99.90;;;;;;5115537;27;20071;-74
2022/01/12 04:12:09;;;;;;;9.25;4.15;;;3.60;99.90;;;;;;5114706;27;20046;-74
2022/01/12 04:14:36;;;;;;;9.48;3.35;;;2.90;99.90;;;;;;5098933;27;20726;-74
2022/01/12 04:17:02;;;;;;;7.05;3.47;;;3.00;99.90;;;;;;5095040;27;20062;-74
2022/01/12 04:19:28;;;;;;;7.95;3.58;;;2.80;99.90;;;;;;5092920;27;20043;-73
2022/01/12 04:21:54;;;;;;;5.70;2.55;;;3.00;99.90;;;;;;5116282;27;20089;-74
2022/01/12 04:24:20;;;;;;;10.00;4.10;;;2.80;99.90;;;;;;5094431;27;20197;-74
2022/01/12 04:26:46;;;;;;;14.10;5.38;;;2.90;99.90;;;;;;5112320;27;20119;-74
2022/01/12 04:29:13;;;;;;;10.48;4.03;;;4.20;99.90;;;;;;5096983;27;20619;-74
2022/01/12 04:31:39;;;;;;;13.48;4.10;;;3.40;99.90;;;;;;5092934;27;20044;-74
2022/01/12 04:34:06;;;;;;;14.52;4.05;;;3.60;99.90;;;;;;5109726;27;20040;-74
2022/01/12 04:36:33;;;;;;;10.38;4.32;;;3.30;99.90;;;;;;5097350;27;20074;-74
2022/01/12 04:38:59;;;;;;;8.40;3.33;;;2.80;99.90;;;;;;5099637;27;20044;-74
2022/01/12 04:41:26;;;;;;;10.43;3.53;;;2.60;99.90;;;;;;5113577;27;20213;-74
2022/01/12 04:43:53;;;;;;;6.07;3.75;;;3.20;99.90;;;;;;5091539;27;20461;-74
2022/01/12 04:46:27;;;;;;;8.68;3.95;;;2.70;99.90;;;;;;5104099;27;20552;-73
2022/01/12 04:49:23;;;;;;;9.82;3.88;;;2.60;99.90;;;;;;5117394;27;20076;-74
2022/01/12 04:51:50;;;;;;;5.40;3.47;;;3.10;99.90;;;;;;5095080;27;20132;-73
2022/01/12 04:54:17;;;;;;;8.77;2.92;;;2.30;99.90;;;;;;5094991;27;20044;-74
2022/01/12 04:56:42;;;;;;;8.23;3.75;;;3.30;99.90;;;;;;5098377;27;20094;-74
2022/01/12 04:59:08;;;;;;;8.23;4.50;;;2.80;99.90;;;;;;5109714;27;20579;-73
2022/01/12 05:01:47;;;;;;;8.43;3.53;;;2.70;99.90;;;;;;5094574;27;20058;-73
2022/01/12 05:10:01;;;;;;;11.07;4.18;;;2.40;99.90;;;;;;5112413;27;20039;-73
2022/01/12 05:15:18;;;;;;;9.50;3.88;;;2.50;99.90;;;;;;5111596;27;20051;-74
2022/01/12 05:17:44;;;;;;;11.85;3.30;;;3.30;99.90;;;;;;5112474;27;20105;-74
2022/01/12 05:20:10;;;;;;;4.68;2.63;;;2.60;99.90;;;;;;5098343;27;20125;-73
2022/01/12 05:22:36;;;;;;;6.40;3.47;;;2.60;99.90;;;;;;5095839;27;20071;-74
2022/01/12 05:25:02;;;;;;;10.52;3.17;;;2.70;99.90;;;;;;5098807;27;20126;-73
2022/01/12 05:27:28;;;;;;;9.10;4.05;;;2.50;99.90;;;;;;5089733;27;20047;-74
2022/01/12 05:29:53;;;;;;;10.75;3.80;;;3.10;99.90;;;;;;5093896;27;20046;-73
2022/01/12 05:32:19;;;;;;;6.40;3.08;;;1.90;99.90;;;;;;5091217;27;20173;-74
2022/01/12 05:34:45;;;;;;;6.50;2.88;;;2.30;99.90;;;;;;5093848;27;20108;-74
2022/01/12 05:37:11;;;;;;;6.22;3.35;;;2.10;99.90;;;;;;5098379;27;20031;-73
2022/01/12 05:39:39;;;;;;;5.18;2.58;;;1.90;99.90;;;;;;5094404;27;20035;-73
2022/01/12 05:42:05;;;;;;;7.70;3.35;;;2.60;99.90;;;;;;5096285;27;20139;-73
2022/01/12 05:44:34;;;;;;;6.90;2.72;;;2.30;99.90;;;;;;5096582;27;20039;-73
2022/01/12 05:47:00;;;;;;;6.68;2.55;;;2.30;99.90;;;;;;5093752;27;20050;-74
2022/01/12 05:49:36;;;;;;;10.02;3.53;;;3.80;99.90;;;;;;5100864;27;20040;-73
2022/01/12 05:52:03;;;;;;;9.52;3.83;;;3.80;99.90;;;;;;5096745;27;20419;-74
2022/01/12 05:54:29;;;;;;;7.25;2.40;;;2.40;99.90;;;;;;5097585;27;20040;-73
2022/01/12 05:56:55;;;;;;;8.32;3.55;;;2.50;99.90;;;;;;5093661;27;20051;-72
2022/01/12 05:59:21;;;;;;;13.18;3.65;;;2.80;99.90;;;;;;5110905;27;20134;-74
2022/01/12 06:01:47;;;;;;;7.53;3.42;;;2.80;99.90;;;;;;5092283;27;20051;-73
2022/01/12 06:04:12;;;;;;;9.95;5.20;;;2.40;99.90;;;;;;5095755;27;20111;-73
2022/01/12 06:06:38;;;;;;;4.85;3.30;;;2.40;99.90;;;;;;5102473;27;20105;-73
2022/01/12 06:09:04;;;;;;;9.60;4.13;;;2.40;99.90;;;;;;5093363;27;20122;-74
2022/01/12 06:11:30;;;;;;;7.57;4.13;;;2.40;99.90;;;;;;5096953;27;20142;-74
2022/01/12 06:13:57;;;;;;;6.53;2.53;;;2.30;99.90;;;;;;5096920;27;20044;-74
2022/01/12 06:16:23;;;;;;;12.45;3.75;;;2.40;99.90;;;;;;5091158;27;20041;-73
2022/01/12 06:18:49;;;;;;;8.07;2.88;;;3.00;99.90;;;;;;5102356;27;20079;-74
2022/01/12 06:21:15;;;;;;;6.75;2.25;;;3.10;99.90;;;;;;5097769;27;20130;-75
2022/01/12 06:23:41;;;;;;;8.70;4.25;;;2.40;99.90;;;;;;5095408;27;20570;-74
2022/01/12 06:26:07;;;;;;;6.88;2.83;;;1.80;99.90;;;;;;5106395;27;20051;-75
2022/01/12 06:31:12;;;;;;;8.55;4.18;;;1.90;99.90;;;;;;5104121;27;20048;-74
2022/01/12 06:33:42;;;;;;;4.50;2.22;;;3.60;99.90;;;;;;5105137;27;20185;-74
2022/01/12 06:36:10;;;;;;;8.68;3.95;;;2.60;99.90;;;;;;5096160;27;21320;-75
2022/01/12 06:38:36;;;;;;;6.68;3.33;;;3.60;99.90;;;;;;5101396;27;20079;-74
2022/01/12 06:41:02;;;;;;;10.57;4.00;;;2.40;99.90;;;;;;5117174;27;20095;-75
2022/01/12 06:43:30;;;;;;;9.00;3.60;;;2.80;99.90;;;;;;5096775;27;20062;-76
2022/01/12 06:45:59;;;;;;;15.38;4.15;;;2.50;99.90;;;;;;5095940;27;20039;-82
2022/01/12 06:48:26;;;;;;;7.38;3.58;;;2.50;99.90;;;;;;5110888;27;20101;-75
2022/01/12 06:50:51;;;;;;;9.85;3.53;;;2.50;99.90;;;;;;5096716;27;20130;-74
2022/01/12 06:53:17;;;;;;;7.35;3.25;;;2.30;99.90;;;;;;5102160;27;20031;-76
2022/01/12 06:55:43;;;;;;;6.30;2.75;;;2.60;99.90;;;;;;5091146;27;20036;-77
2022/01/12 06:58:09;;;;;;;6.70;4.30;;;2.80;99.90;;;;;;5096073;27;20066;-74
2022/01/12 07:00:35;;;;;;;8.68;3.65;;;2.30;99.90;;;;;;5094741;27;20859;-77
2022/01/12 07:03:01;;;;;;;10.52;3.05;;;2.30;99.90;;;;;;5098621;27;20048;-76
2022/01/12 07:05:27;;;;;;;9.73;3.65;;;2.30;99.90;;;;;;5111773;27;20460;-76
2022/01/12 07:07:53;;;;;;;7.20;2.95;;;2.40;99.90;;;;;;5095113;27;20040;-76
2022/01/12 07:10:19;;;;;;;11.05;3.72;;;3.20;99.90;;;;;;5115963;27;20112;-77
2022/01/12 07:12:44;;;;;;;10.35;4.50;;;2.20;99.90;;;;;;5094401;27;20131;-75
2022/01/12 07:15:10;;;;;;;8.07;3.40;;;2.80;99.90;;;;;;5096433;27;20039;-76
2022/01/12 07:17:36;;;;;;;10.70;4.43;;;2.10;99.90;;;;;;5113037;27;20520;-76
2022/01/12 07:20:03;;;;;;;8.70;3.58;;;1.00;99.90;;;;;;5100887;27;20126;-76
2022/01/12 07:22:31;;;;;;;8.40;3.60;;;2.20;99.90;;;;;;5098984;27;20048;-75
2022/01/12 07:24:57;;;;;;;6.20;2.72;;;2.20;99.90;;;;;;5114738;27;20051;-75
2022/01/12 07:27:23;;;;;;;5.43;3.08;;;2.10;99.90;;;;;;5095001;27;20086;-75
2022/01/12 07:29:49;;;;;;;8.93;4.53;;;2.10;99.90;;;;;;5114264;27;20035;-75
2022/01/12 07:32:15;;;;;;;7.97;2.97;;;2.30;99.90;;;;;;5099085;27;20101;-75
2022/01/12 07:34:40;;;;;;;11.88;4.00;;;3.00;99.90;;;;;;5099583;27;20043;-75
2022/01/12 07:37:06;;;;;;;7.07;3.50;;;2.70;99.90;;;;;;5090735;27;20040;-75
2022/01/12 07:39:32;;;;;;;6.25;3.63;;;2.00;99.90;;;;;;5101018;27;20039;-75
2022/01/12 07:42:03;;;;;;;10.65;3.90;;;3.00;99.90;;;;;;5092011;27;20044;-75
2022/01/12 07:44:32;;;;;;;8.57;3.20;;;2.10;99.90;;;;;;5114422;27;20044;-75
2022/01/12 07:46:57;;;;;;;11.88;3.60;;;2.40;99.90;;;;;;5102906;27;20120;-75
2022/01/12 07:49:25;;;;;;;7.20;3.13;;;1.90;99.90;;;;;;5094611;27;20043;-75
2022/01/12 07:51:51;;;;;;;7.25;4.05;;;1.80;99.90;;;;;;5098378;27;20048;-74
2022/01/12 07:54:17;;;;;;;8.95;3.33;;;2.10;99.90;;;;;;5096325;27;20509;-75
2022/01/12 07:56:45;;;;;;;10.50;4.15;;;1.40;99.90;;;;;;5100054;27;20043;-75
2022/01/12 07:59:11;;;;;;;10.32;3.85;;;2.10;99.90;;;;;;5094899;27;20044;-75
2022/01/12 08:01:37;;;;;;;10.23;2.75;;;2.40;99.90;;;;;;5119713;27;20044;-75
2022/01/12 08:04:08;;;;;;;14.05;5.63;;;2.20;99.90;;;;;;5104118;27;20067;-75
2022/01/12 08:06:34;;;;;;;13.60;4.30;;;2.00;99.90;;;;;;5095761;27;20042;-75
2022/01/12 08:09:00;;;;;;;8.10;3.58;;;2.80;99.90;;;;;;5102824;27;20055;-77
2022/01/12 08:11:26;;;;;;;12.45;3.58;;;2.70;99.90;;;;;;5098601;27;20856;-77
2022/01/12 08:13:52;;;;;;;8.32;3.47;;;2.20;99.90;;;;;;5099554;27;20519;-75
2022/01/12 08:16:19;;;;;;;10.32;4.90;;;2.80;99.90;;;;;;5114868;27;20047;-79
2022/01/12 08:18:45;;;;;;;8.35;3.83;;;3.40;99.90;;;;;;5101287;27;20055;-80
2022/01/12 08:21:10;;;;;;;10.70;3.47;;;2.90;99.90;;;;;;5102012;27;20472;-79
2022/01/12 08:23:39;;;;;;;11.48;3.35;;;1.70;99.90;;;;;;5099962;27;20076;-78
2022/01/12 08:26:14;;;;;;;8.27;3.90;;;3.10;99.90;;;;;;5096067;27;20793;-78
2022/01/12 08:28:42;;;;;;;11.98;5.25;;;2.60;99.90;;;;;;5093433;27;20536;-78
2022/01/12 08:31:08;;;;;;;17.60;5.20;;;4.10;99.90;;;;;;5093700;27;20075;-76
2022/01/12 08:33:36;;;;;;;19.52;7.10;;;2.80;99.90;;;;;;5095874;27;20473;-75
2022/01/12 08:36:03;;;;;;;15.35;6.40;;;2.80;99.90;;;;;;5115976;27;20036;-76
2022/01/12 08:38:31;;;;;;;10.23;4.35;;;3.20;99.90;;;;;;5095711;27;20195;-76
2022/01/12 08:40:57;;;;;;;14.18;3.63;;;2.30;99.90;;;;;;5110644;27;20144;-76
2022/01/12 08:43:23;;;;;;;14.43;4.95;;;3.80;99.90;;;;;;5095283;27;20529;-75
2022/01/12 08:45:51;;;;;;;12.00;4.75;;;2.20;99.90;;;;;;5102615;27;20036;-76
2022/01/12 08:48:16;;;;;;;11.27;5.63;;;2.30;99.90;;;;;;5114920;27;20027;-75
2022/01/12 08:50:42;;;;;;;10.20;4.60;;;3.30;99.90;;;;;;5095622;27;20053;-75
2022/01/12 08:53:08;;;;;;;8.32;4.35;;;3.00;99.90;;;;;;5112708;27;20043;-75
2022/01/12 08:55:37;;;;;;;6.97;3.60;;;2.30;99.90;;;;;;5092581;27;20181;-75
2022/01/12 08:58:03;;;;;;;4.50;2.78;;;3.20;99.90;;;;;;5099896;27;20048;-75
2022/01/12 09:00:29;;;;;;;4.40;3.22;;;3.70;99.90;;;;;;5097770;27;20075;-75
2022/01/12 09:02:55;;;;;;;9.75;5.70;;;3.30;99.90;;;;;;5102575;27;20717;-76
2022/01/12 09:05:23;;;;;;;10.50;4.15;;;3.20;99.90;;;;;;5100392;27;20031;-75
2022/01/12 09:07:49;;;;;;;7.40;3.90;;;2.40;99.90;;;;;;5113087;27;20044;-76
2022/01/12 09:10:15;;;;;;;9.02;3.00;;;2.80;99.90;;;;;;5090648;27;20040;-74
2022/01/12 09:12:41;;;;;;;5.80;4.72;;;2.30;99.90;;;;;;5096051;27;20094;-75
2022/01/12 09:15:11;;;;;;;8.32;3.42;;;2.40;99.90;;;;;;5097008;27;20168;-75
2022/01/12 09:17:37;;;;;;;8.18;3.28;;;2.40;99.90;;;;;;5115511;27;20097;-75
2022/01/12 09:20:06;;;;;;;8.35;4.22;;;2.30;99.90;;;;;;5097623;27;20044;-75
2022/01/12 09:22:31;;;;;;;7.70;4.20;;;2.40;99.90;;;;;;5113848;27;20567;-75
2022/01/12 09:24:57;;;;;;;10.77;3.30;;;2.70;99.90;;;;;;5095055;27;20036;-76
2022/01/12 09:27:23;;;;;;;8.65;4.05;;;2.60;99.90;;;;;;5094322;27;20815;-75
2022/01/12 09:29:49;;;;;;;5.90;2.30;;;2.50;99.90;;;;;;5113873;27;20062;-75
2022/01/12 09:32:15;;;;;;;8.75;3.35;;;2.50;99.90;;;;;;5113786;27;20145;-75
2022/01/12 09:34:41;;;;;;;9.38;3.75;;;2.50;99.90;;;;;;5093693;27;20044;-75
2022/01/12 09:37:15;;;;;;;5.97;2.22;;;3.40;99.90;;;;;;5092383;27;20532;-77
2022/01/12 09:39:46;;;;;;;4.68;3.17;;;2.70;99.90;;;;;;5099303;27;20050;-77
2022/01/12 09:42:12;;;;;;;5.68;2.95;;;2.60;99.90;;;;;;5094805;27;20129;-75
2022/01/12 09:44:43;;;;;;;6.20;3.35;;;3.40;99.90;;;;;;5097103;27;21609;-76
2022/01/12 09:47:09;;;;;;;7.37;4.60;;;2.40;99.90;;;;;;5098313;27;20046;-75
2022/01/12 09:49:35;;;;;;;7.82;3.92;;;2.50;99.90;;;;;;5119011;27;20284;-75
2022/01/12 09:52:02;;;;;;;6.90;3.33;;;2.40;99.90;;;;;;5095488;27;20074;-76
2022/01/12 09:54:28;;;;;;;6.03;3.35;;;2.50;99.90;;;;;;5096226;27;20078;-76
2022/01/12 09:56:57;;;;;;;4.68;2.55;;;3.30;99.90;;;;;;5117478;27;20048;-75
2022/01/12 09:59:23;;;;;;;9.25;4.05;;;3.60;99.90;;;;;;5098627;27;20138;-75
2022/01/12 10:01:49;;;;;;;8.52;3.78;;;2.70;99.90;;;;;;5099305;27;20560;-75
2022/01/12 10:04:18;;;;;;;10.30;4.78;;;4.10;99.90;;;;;;5104402;27;20565;-76
2022/01/12 10:06:55;;;;;;;7.72;4.35;;;2.90;99.90;;;;;;5102068;27;21087;-76
2022/01/12 10:09:31;;;;;;;16.73;5.65;;;2.80;99.90;;;;;;5099449;27;20074;-76
2022/01/12 10:12:00;;;;;;;11.63;6.05;;;3.60;99.90;;;;;;5093752;27;20604;-75
2022/01/12 10:14:37;;;;;;;10.00;4.53;;;3.90;99.90;;;;;;5096739;27;20042;-75
2022/01/12 10:17:03;;;;;;;10.68;5.03;;;3.20;99.90;;;;;;5107701;27;20043;-75
2022/01/12 10:19:32;;;;;;;7.32;4.88;;;3.50;99.90;;;;;;5119209;27;20055;-75
2022/01/12 10:22:00;;;;;;;14.98;5.88;;;3.70;99.90;;;;;;5099878;27;20046;-76
2022/01/12 10:24:27;;;;;;;10.70;5.10;;;3.90;99.90;;;;;;5120247;27;20063;-76
2022/01/12 10:26:55;;;;;;;11.63;4.25;;;3.10;99.90;;;;;;5121099;27;20116;-76
2022/01/12 10:29:31;;;;;;;11.30;5.03;;;2.90;99.90;;;;;;5099993;27;20050;-75
2022/01/12 10:32:01;;;;;;;12.82;4.70;;;3.80;99.90;;;;;;5108448;27;20035;-75
2022/01/12 10:34:40;;;;;;;13.18;5.30;;;2.90;99.90;;;;;;5118293;27;20039;-75
2022/01/12 10:37:08;;;;;;;9.30;3.90;;;3.00;99.90;;;;;;5106219;27;20143;-76
2022/01/12 10:39:38;;;;;;;12.38;5.43;;;3.10;99.90;;;;;;5101691;27;20138;-76
2022/01/12 10:42:07;;;;;;;11.20;4.85;;;3.10;99.90;;;;;;5101982;27;20546;-76
2022/01/12 10:44:35;;;;;;;12.35;5.03;;;3.20;99.90;;;;;;5098159;27;20036;-75
2022/01/12 10:47:10;;;;;;;11.13;4.90;;;3.20;99.90;;;;;;5123036;27;20052;-75
2022/01/12 10:49:39;;;;;;;11.75;5.88;;;3.30;99.90;;;;;;5100854;27;20051;-74
2022/01/12 10:52:13;;;;;;;12.93;4.63;;;3.30;99.90;;;;;;5105480;27;20114;-75
2022/01/12 10:54:59;;;;;;;9.18;3.97;;;4.10;99.90;;;;;;5106426;27;20119;-75
2022/01/12 10:57:36;;;;;;;11.93;4.97;;;3.90;99.90;;;;;;5113679;27;20040;-76
2022/01/12 11:00:08;;;;;;;10.65;5.53;;;2.00;99.90;;;;;;5100356;27;20047;-76
2022/01/12 11:02:36;;;;;;;10.52;4.60;;;2.90;99.90;;;;;;5099331;27;20039;-76
2022/01/12 11:05:03;;;;;;;11.98;5.03;;;3.00;99.90;;;;;;5119434;27;20108;-75
2022/01/12 11:07:32;;;;;;;8.57;4.53;;;3.40;99.90;;;;;;5101094;27;20035;-75
2022/01/12 11:10:00;;;;;;;9.73;4.18;;;4.40;99.90;;;;;;5099994;27;20043;-75
2022/01/12 11:12:27;;;;;;;12.60;5.70;;;4.30;99.90;;;;;;5092830;27;20044;-76
2022/01/12 11:14:53;;;;;;;10.68;5.05;;;4.50;99.90;;;;;;5097826;27;20433;-75
2022/01/12 11:17:19;;;;;;;10.52;5.75;;;4.90;99.90;;;;;;5096393;27;20598;-74
2022/01/12 11:20:15;;;;;;;12.45;5.53;;;4.90;99.90;;;;;;5103851;27;20623;-74
2022/01/12 11:22:44;;;;;;;10.02;5.15;;;4.20;99.90;;;;;;5095499;27;20698;-72
2022/01/12 11:25:23;;;;;;;11.73;4.82;;;4.40;99.90;;;;;;5092270;27;20040;-78
2022/01/12 11:28:23;;;;;;;8.27;4.20;;;4.40;99.90;;;;;;5112427;27;20520;-75
2022/01/12 11:30:51;;;;;;;8.13;4.38;;;4.50;99.90;;;;;;5094888;27;20064;-74
2022/01/12 11:33:20;;;;;;;11.00;5.43;;;5.10;99.90;;;;;;5092406;27;20071;-74
2022/01/12 11:35:51;;;;;;;13.40;4.15;;;5.30;99.90;;;;;;5107452;27;20063;-75
2022/01/12 11:38:29;;;;;;;8.48;4.68;;;4.50;99.90;;;;;;5088163;27;20135;-75
2022/01/12 11:41:07;;;;;;;6.95;3.90;;;4.50;99.90;;;;;;5096516;27;20044;-75
2022/01/12 11:43:41;;;;;;;9.63;3.75;;;4.60;99.90;;;;;;5092158;27;20039;-75
2022/01/12 11:46:14;;;;;;;7.97;4.15;;;4.40;99.90;;;;;;5094015;27;20040;-74
2022/01/12 11:48:48;;;;;;;10.57;5.38;;;4.90;99.90;;;;;;5093032;27;20044;-75
2022/01/12 11:51:17;;;;;;;7.30;4.47;;;5.10;99.90;;;;;;5090817;27;20611;-75
2022/01/12 11:54:07;;;;;;;9.52;4.70;;;4.80;99.90;;;;;;5095436;27;20512;-75
2022/01/12 11:56:33;;;;;;;11.15;4.50;;;4.80;99.90;;;;;;5093784;27;20047;-75
2022/01/12 11:59:20;;;;;;;8.95;5.13;;;4.90;99.90;;;;;;5115407;27;20055;-75
2022/01/12 12:01:49;;;;;;;7.28;3.88;;;4.80;99.90;;;;;;5107383;27;20048;-75
2022/01/12 12:04:27;;;;;;;9.20;4.00;;;4.90;99.90;;;;;;5108234;27;20043;-75
2022/01/12 12:07:13;;;;;;;8.90;4.32;;;4.70;99.90;;;;;;5099489;27;20043;-75
2022/01/12 12:09:43;;;;;;;8.23;4.20;;;4.90;99.90;;;;;;5113038;27;20620;-75
2022/01/12 12:12:38;;;;;;;;;;;;;;;;;;;;;
2022/01/12 12:15:07;;;;;;;7.10;2.95;;;4.90;99.90;;;;;;5104833;27;40385;-74
2022/01/12 12:17:35;;;;;;;5.20;2.78;;;5.30;99.90;;;;;;5092611;27;20394;-74
2022/01/12 12:20:15;;;;;;;7.47;4.07;;;5.30;99.90;;;;;;5112197;27;20036;-73
2022/01/12 12:22:44;;;;;;;8.63;4.50;;;5.80;99.90;;;;;;5092399;27;20096;-74
2022/01/12 12:25:19;;;;;;;7.20;3.95;;;5.20;99.90;;;;;;5091426;27;20040;-74
2022/01/12 12:27:56;;;;;;;8.68;5.15;;;5.40;99.90;;;;;;5095164;27;20108;-74
2022/01/12 12:30:28;;;;;;;6.57;4.00;;;5.80;99.90;;;;;;5107419;27;20039;-74
2022/01/12 12:33:34;;;;;;;8.63;3.92;;;6.00;99.90;;;;;;5106302;27;20075;-74
2022/01/12 12:36:07;;;;;;;11.88;4.25;;;6.20;99.90;;;;;;5109041;27;20050;-74
2022/01/12 12:38:38;;;;;;;10.10;3.83;;;5.20;99.90;;;;;;5089192;27;20059;-75
2022/01/12 12:41:12;;;;;;;7.47;3.65;;;5.30;99.90;;;;;;5090184;27;20158;-74
2022/01/12 12:43:40;;;;;;;8.98;4.78;;;5.30;99.90;;;;;;5089532;27;20059;-73
2022/01/12 12:46:13;;;;;;;7.38;4.35;;;6.00;99.90;;;;;;5091896;27;20052;-73
2022/01/12 12:48:43;;;;;;;11.30;4.80;;;5.90;99.90;;;;;;5095007;27;20038;-74
2022/01/12 12:51:23;;;;;;;10.60;5.18;;;5.40;99.90;;;;;;5092469;27;20118;-74
2022/01/12 12:53:54;;;;;;;11.68;4.72;;;6.40;99.90;;;;;;5090715;27;20059;-74
2022/01/12 12:56:27;;;;;;;9.80;4.13;;;5.50;99.90;;;;;;5087212;27;20044;-74
2022/01/12 12:59:05;;;;;;;9.77;5.30;;;6.00;99.90;;;;;;5089441;27;20055;-74
2022/01/12 13:01:31;;;;;;;12.95;4.65;;;5.70;99.90;;;;;;5108149;27;20035;-74
2022/01/12 13:04:06;;;;;;;9.45;5.00;;;5.90;99.90;;;;;;5111080;27;20105;-74
2022/01/12 13:06:38;;;;;;;14.52;6.25;;;5.60;99.90;;;;;;5111487;27;22130;-74
2022/01/12 13:09:16;;;;;;;8.88;4.35;;;5.30;99.90;;;;;;5089896;27;20158;-73
2022/01/12 13:11:44;;;;;;;9.52;4.72;;;6.40;99.90;;;;;;5097240;27;20043;-74
2022/01/12 13:14:15;;;;;;;7.80;4.22;;;6.20;99.90;;;;;;5093179;27;20692;-74
2022/01/12 13:16:53;;;;;;;9.15;4.88;;;7.50;99.90;;;;;;5107911;27;20047;-76
2022/01/12 13:22:35;;;;;;;11.95;5.07;;;6.20;99.90;;;;;;5110255;27;20032;-78
2022/01/12 13:25:06;;;;;;;10.95;5.50;;;6.80;99.90;;;;;;5089563;27;21343;-77
2022/01/12 13:27:32;;;;;;;13.25;5.85;;;6.00;99.90;;;;;;5111592;27;20048;-76
2022/01/12 13:29:58;;;;;;;12.23;6.88;;;5.90;99.90;;;;;;5109112;27;20100;-77
2022/01/12 13:32:24;;;;;;;11.68;5.47;;;6.00;99.90;;;;;;5108038;27;20047;-77
2022/01/12 13:34:59;;;;;;;9.20;5.82;;;5.80;99.90;;;;;;5110715;27;20084;-77
2022/01/12 13:37:25;;;;;;;10.77;6.28;;;5.90;99.90;;;;;;5096216;27;20046;-75
2022/01/12 13:40:12;;;;;;;10.65;4.32;;;5.80;99.90;;;;;;5091287;27;20061;-77
2022/01/12 13:42:49;;;;;;;10.45;5.90;;;5.90;99.90;;;;;;5111836;27;20044;-76
2022/01/12 13:45:18;;;;;;;12.55;5.60;;;6.50;99.90;;;;;;5094349;27;20088;-76
2022/01/12 13:47:52;;;;;;;9.95;4.60;;;5.80;99.90;;;;;;5095667;27;20036;-76
2022/01/12 13:50:19;;;;;;;10.23;5.63;;;6.70;99.90;;;;;;5115242;27;20035;-76
2022/01/12 13:52:55;;;;;;;7.13;4.93;;;6.70;99.90;;;;;;5115579;27;20805;-76
2022/01/12 13:55:21;;;;;;;18.80;6.13;;;6.00;99.90;;;;;;5110703;27;20075;-75
2022/01/12 13:57:56;;;;;;;10.90;5.45;;;6.00;99.90;;;;;;5114928;27;20968;-76
2022/01/12 14:00:22;;;;;;;16.95;6.18;;;6.00;99.90;;;;;;5114080;27;20054;-75
2022/01/12 14:02:48;;;;;;;10.23;5.50;;;6.00;99.90;;;;;;5111706;27;20058;-75
2022/01/12 14:05:19;;;;;;;9.20;4.93;;;6.10;99.90;;;;;;5100462;27;20048;-76
2022/01/12 14:08:00;;;;;;;10.23;6.33;;;6.10;99.90;;;;;;5113496;27;20040;-76
2022/01/12 14:10:30;;;;;;;10.20;5.70;;;6.10;99.90;;;;;;5112084;27;20630;-75
2022/01/12 14:12:56;;;;;;;9.10;4.70;;;6.00;99.90;;;;;;5091337;27;20352;-75
2022/01/12 14:15:27;;;;;;;11.02;5.68;;;6.30;99.90;;;;;;5111362;27;20040;-76
2022/01/12 14:17:53;;;;;;;10.23;5.72;;;6.00;99.90;;;;;;5089736;27;20056;-76